createdAt,value
2018-01-15T00:00:23.932Z,0
2018-01-15T00:01:25.731Z,0
2018-01-15T00:02:27.612Z,0
2018-01-15T00:03:29.471Z,0
2018-01-15T00:04:31.328Z,0
2018-01-15T00:05:45.462Z,0
2018-01-15T00:06:47.345Z,0
2018-01-15T00:07:49.206Z,0
2018-01-15T00:08:51.088Z,0
2018-01-15T00:09:52.902Z,0
2018-01-15T00:10:54.697Z,0
2018-01-15T00:11:56.559Z,0
2018-01-15T00:12:58.437Z,0
2018-01-15T00:14:00.295Z,0
2018-01-15T00:15:14.426Z,0
2018-01-15T00:16:16.290Z,0
2018-01-15T00:17:18.165Z,0
2018-01-15T00:18:20.024Z,0
2018-01-15T00:19:21.818Z,0
2018-01-15T00:20:23.612Z,0
2018-01-15T00:21:25.472Z,0
2018-01-15T00:22:27.333Z,0
2018-01-15T00:23:29.188Z,0
2018-01-15T00:24:43.321Z,0
2018-01-15T00:25:45.199Z,0
2018-01-15T00:26:47.064Z,0
2018-01-15T00:27:48.945Z,0
2018-01-15T00:28:50.740Z,0
2018-01-15T00:29:52.534Z,0
2018-01-15T00:30:54.393Z,0
2018-01-15T00:31:56.273Z,0
2018-01-15T00:32:58.127Z,0
2018-01-15T00:34:12.254Z,0
2018-01-15T00:35:14.117Z,0
2018-01-15T00:36:15.973Z,0
2018-01-15T00:37:17.834Z,0
2018-01-15T00:38:19.653Z,0
2018-01-15T00:39:21.466Z,0
2018-01-15T00:40:23.325Z,0
2018-01-15T00:41:25.211Z,0
2018-01-15T00:42:27.087Z,0
2018-01-15T00:43:41.221Z,0
2018-01-15T00:44:43.107Z,0
2018-01-15T00:45:44.986Z,0
2018-01-15T00:46:46.837Z,0
2018-01-15T00:47:48.638Z,0
2018-01-15T00:48:50.430Z,0
2018-01-15T00:49:52.286Z,0
2018-01-15T00:50:54.142Z,0
2018-01-15T00:51:56.003Z,0
2018-01-15T00:53:10.152Z,0
2018-01-15T00:54:12.013Z,0
2018-01-15T00:55:13.871Z,0
2018-01-15T00:56:15.727Z,0
2018-01-15T00:57:17.523Z,0
2018-01-15T00:58:19.320Z,0
2018-01-15T00:59:21.177Z,0
2018-01-15T01:00:23.056Z,0
2018-01-15T01:01:24.912Z,0
2018-01-15T01:02:39.044Z,0
2018-01-15T01:03:40.905Z,0
2018-01-15T01:04:42.760Z,0
2018-01-15T01:05:44.620Z,0
2018-01-15T01:06:46.414Z,0
2018-01-15T01:07:48.210Z,0
2018-01-15T01:08:50.088Z,0
2018-01-15T01:09:51.949Z,0
2018-01-15T01:10:53.813Z,0
2018-01-15T01:12:08.012Z,0
2018-01-15T01:13:09.892Z,0
2018-01-15T01:14:11.752Z,0
2018-01-15T01:15:13.615Z,0
2018-01-15T01:16:15.431Z,0
2018-01-15T01:17:17.251Z,0
2018-01-15T01:18:19.107Z,0
2018-01-15T01:19:20.994Z,0
2018-01-15T01:20:22.868Z,0
2018-01-15T01:21:36.999Z,0
2018-01-15T01:22:38.858Z,0
2018-01-15T01:23:40.719Z,0
2018-01-15T01:24:42.569Z,0
2018-01-15T01:25:44.366Z,0
2018-01-15T01:26:46.161Z,0
2018-01-15T01:27:48.015Z,0
2018-01-15T01:28:49.877Z,0
2018-01-15T01:29:51.755Z,0
2018-01-15T01:31:05.887Z,0
2018-01-15T01:32:07.750Z,0
2018-01-15T01:33:09.605Z,0
2018-01-15T01:34:11.464Z,0
2018-01-15T01:35:13.277Z,0
2018-01-15T01:36:15.067Z,0
2018-01-15T01:37:16.928Z,0
2018-01-15T01:38:18.793Z,0
2018-01-15T01:39:20.652Z,0
2018-01-15T01:40:34.823Z,0
2018-01-15T01:41:36.680Z,0
2018-01-15T01:42:38.539Z,0
2018-01-15T01:43:40.391Z,0
2018-01-15T01:44:42.184Z,0
2018-01-15T01:45:43.976Z,0
2018-01-15T01:46:45.836Z,0
2018-01-15T01:47:47.717Z,0
2018-01-15T01:48:49.579Z,0
2018-01-15T01:50:03.779Z,0
2018-01-15T01:51:05.637Z,0
2018-01-15T01:52:07.497Z,0
2018-01-15T01:53:09.388Z,0
2018-01-15T01:54:11.198Z,0
2018-01-15T01:55:13.017Z,0
2018-01-15T01:56:14.896Z,0
2018-01-15T01:57:16.755Z,0
2018-01-15T01:58:18.613Z,0
2018-01-15T01:59:32.791Z,0
2018-01-15T02:00:34.647Z,0
2018-01-15T02:01:36.508Z,0
2018-01-15T02:02:38.384Z,0
2018-01-15T02:03:40.180Z,0
2018-01-15T02:04:41.978Z,0
2018-01-15T02:05:43.857Z,0
2018-01-15T02:06:45.718Z,0
2018-01-15T02:07:47.599Z,0
2018-01-15T02:09:01.801Z,0
2018-01-15T02:10:03.686Z,0
2018-01-15T02:11:05.570Z,0
2018-01-15T02:12:07.448Z,0
2018-01-15T02:13:09.268Z,0
2018-01-15T02:14:11.088Z,0
2018-01-15T02:15:12.966Z,0
2018-01-15T02:16:14.824Z,0
2018-01-15T02:17:16.685Z,0
2018-01-15T02:18:30.834Z,0
2018-01-15T02:19:32.695Z,0
2018-01-15T02:20:34.555Z,0
2018-01-15T02:21:36.408Z,0
2018-01-15T02:22:38.203Z,0
2018-01-15T02:23:39.996Z,0
2018-01-15T02:24:41.855Z,0
2018-01-15T02:25:43.736Z,0
2018-01-15T02:26:45.613Z,0
2018-01-15T02:27:59.745Z,0
2018-01-15T02:29:01.609Z,0
2018-01-15T02:30:03.466Z,0
2018-01-15T02:31:05.347Z,0
2018-01-15T02:32:07.162Z,0
2018-01-15T02:33:08.958Z,0
2018-01-15T02:34:10.818Z,0
2018-01-15T02:35:12.678Z,0
2018-01-15T02:36:14.550Z,0
2018-01-15T02:37:28.684Z,0
2018-01-15T02:38:30.563Z,0
2018-01-15T02:39:32.423Z,0
2018-01-15T02:40:34.285Z,0
2018-01-15T02:41:36.103Z,0
2018-01-15T02:42:37.919Z,0
2018-01-15T02:43:39.778Z,0
2018-01-15T02:44:41.634Z,0
2018-01-15T02:45:43.520Z,0
2018-01-15T02:46:57.669Z,0
2018-01-15T02:47:59.552Z,0
2018-01-15T02:49:01.408Z,0
2018-01-15T02:50:03.272Z,0
2018-01-15T02:51:05.064Z,0
2018-01-15T02:52:06.857Z,0
2018-01-15T02:53:08.718Z,0
2018-01-15T02:54:10.576Z,0
2018-01-15T02:55:12.455Z,0
2018-01-15T02:56:26.588Z,0
2018-01-15T02:57:28.463Z,0
2018-01-15T02:58:30.322Z,0
2018-01-15T02:59:32.207Z,0
2018-01-15T03:00:34.023Z,0
2018-01-15T03:01:35.821Z,0
2018-01-15T03:02:37.697Z,0
2018-01-15T03:03:39.558Z,0
2018-01-15T03:04:41.435Z,0
2018-01-15T03:05:55.563Z,0
2018-01-15T03:06:57.444Z,0
2018-01-15T03:07:59.302Z,0
2018-01-15T03:09:01.159Z,0
2018-01-15T03:10:02.956Z,0
2018-01-15T03:11:04.754Z,0
2018-01-15T03:12:06.634Z,0
2018-01-15T03:13:08.494Z,0
2018-01-15T03:14:10.376Z,0
2018-01-15T03:15:24.571Z,0
2018-01-15T03:16:26.430Z,0
2018-01-15T03:17:28.308Z,0
2018-01-15T03:18:30.174Z,0
2018-01-15T03:19:31.972Z,0
2018-01-15T03:20:33.783Z,0
2018-01-15T03:21:35.649Z,0
2018-01-15T03:22:37.504Z,0
2018-01-15T03:23:39.367Z,0
2018-01-15T03:24:53.511Z,0
2018-01-15T03:25:55.371Z,0
2018-01-15T03:26:57.228Z,0
2018-01-15T03:27:59.086Z,0
2018-01-15T03:29:00.881Z,0
2018-01-15T03:30:02.675Z,0
2018-01-15T03:31:04.574Z,0
2018-01-15T03:32:06.457Z,0
2018-01-15T03:33:08.337Z,0
2018-01-15T03:34:22.465Z,0
2018-01-15T03:35:24.344Z,0
2018-01-15T03:36:26.203Z,0
2018-01-15T03:37:28.075Z,0
2018-01-15T03:38:29.869Z,0
2018-01-15T03:39:31.664Z,0
2018-01-15T03:40:33.553Z,0
2018-01-15T03:41:35.426Z,0
2018-01-15T03:42:37.307Z,0
2018-01-15T03:43:51.428Z,0
2018-01-15T03:44:53.305Z,0
2018-01-15T03:45:55.162Z,0
2018-01-15T03:46:57.017Z,0
2018-01-15T03:47:58.820Z,0
2018-01-15T03:49:00.628Z,0
2018-01-15T03:50:02.491Z,0
2018-01-15T03:51:04.371Z,0
2018-01-15T03:52:06.255Z,0
2018-01-15T03:53:20.402Z,0
2018-01-15T03:54:22.265Z,0
2018-01-15T03:55:24.144Z,0
2018-01-15T03:56:26.030Z,0
2018-01-15T03:57:27.847Z,0
2018-01-15T03:58:29.641Z,0
2018-01-15T03:59:31.525Z,0
2018-01-15T04:00:33.403Z,0
2018-01-15T04:01:35.261Z,0
2018-01-15T04:02:49.389Z,0
2018-01-15T04:03:51.273Z,0
2018-01-15T04:04:53.187Z,0
2018-01-15T04:05:55.029Z,0
2018-01-15T04:06:56.823Z,0
2018-01-15T04:07:58.621Z,0
2018-01-15T04:09:00.504Z,0
2018-01-15T04:10:02.378Z,0
2018-01-15T04:11:04.233Z,0
2018-01-15T04:12:18.355Z,0
2018-01-15T04:13:20.222Z,0
2018-01-15T04:14:22.077Z,0
2018-01-15T04:15:23.958Z,0
2018-01-15T04:16:25.755Z,0
2018-01-15T04:17:27.547Z,0
2018-01-15T04:18:29.411Z,0
2018-01-15T04:19:31.293Z,0
2018-01-15T04:20:33.154Z,0
2018-01-15T04:21:47.279Z,0
2018-01-15T04:22:49.142Z,0
2018-01-15T04:23:51.023Z,0
2018-01-15T04:24:52.880Z,0
2018-01-15T04:25:54.676Z,0
2018-01-15T04:26:56.468Z,0
2018-01-15T04:27:58.333Z,0
2018-01-15T04:29:00.215Z,0
2018-01-15T04:30:02.096Z,0
2018-01-15T04:31:16.245Z,0
2018-01-15T04:32:18.104Z,0
2018-01-15T04:33:19.961Z,0
2018-01-15T04:34:21.820Z,0
2018-01-15T04:35:23.633Z,0
2018-01-15T04:36:25.448Z,0
2018-01-15T04:37:27.310Z,0
2018-01-15T04:38:29.167Z,0
2018-01-15T04:39:31.050Z,0
2018-01-15T04:40:45.196Z,0
2018-01-15T04:41:47.057Z,0
2018-01-15T04:42:48.934Z,0
2018-01-15T04:43:50.796Z,0
2018-01-15T04:44:52.595Z,0
2018-01-15T04:45:54.410Z,0
2018-01-15T04:46:56.265Z,0
2018-01-15T04:47:58.124Z,0
2018-01-15T04:48:59.983Z,0
2018-01-15T04:50:14.110Z,0
2018-01-15T04:51:15.969Z,0
2018-01-15T04:52:17.831Z,0
2018-01-15T04:53:19.702Z,0
2018-01-15T04:54:21.537Z,0
2018-01-15T04:55:23.354Z,0
2018-01-15T04:56:25.231Z,0
2018-01-15T04:57:27.087Z,0
2018-01-15T04:58:28.950Z,0
2018-01-15T04:59:43.075Z,0
2018-01-15T05:00:44.942Z,0
2018-01-15T05:01:46.797Z,0
2018-01-15T05:02:48.681Z,0
2018-01-15T05:03:50.497Z,0
2018-01-15T05:04:52.294Z,0
2018-01-15T05:05:54.176Z,0
2018-01-15T05:06:56.058Z,0
2018-01-15T05:07:57.936Z,0
2018-01-15T05:09:12.059Z,0
2018-01-15T05:10:13.922Z,0
2018-01-15T05:11:15.779Z,0
2018-01-15T05:12:17.632Z,0
2018-01-15T05:13:19.428Z,0
2018-01-15T05:14:21.218Z,0
2018-01-15T05:15:23.078Z,0
2018-01-15T05:16:24.930Z,0
2018-01-15T05:17:26.790Z,0
2018-01-15T05:18:40.988Z,0
2018-01-15T05:19:42.866Z,0
2018-01-15T05:20:44.748Z,0
2018-01-15T05:21:46.632Z,0
2018-01-15T05:22:48.453Z,0
2018-01-15T05:23:50.264Z,0
2018-01-15T05:24:52.125Z,0
2018-01-15T05:25:53.980Z,0
2018-01-15T05:26:55.832Z,0
2018-01-15T05:28:10.011Z,0
2018-01-15T05:29:11.894Z,0
2018-01-15T05:30:13.867Z,0
2018-01-15T05:31:15.833Z,0
2018-01-15T05:32:17.647Z,0
2018-01-15T05:33:19.443Z,0
2018-01-15T05:34:21.312Z,0
2018-01-15T05:35:23.174Z,0
2018-01-15T05:36:25.058Z,0
2018-01-15T05:37:39.208Z,0
2018-01-15T05:38:41.083Z,0
2018-01-15T05:39:42.945Z,0
2018-01-15T05:40:44.822Z,0
2018-01-15T05:41:46.620Z,0
2018-01-15T05:42:48.439Z,0
2018-01-15T05:43:50.318Z,0
2018-01-15T05:44:52.177Z,0
2018-01-15T05:45:54.034Z,0
2018-01-15T05:47:08.161Z,0
2018-01-15T05:48:10.041Z,0
2018-01-15T05:49:11.898Z,0
2018-01-15T05:50:13.764Z,0
2018-01-15T05:51:15.589Z,0
2018-01-15T05:52:17.376Z,0
2018-01-15T05:53:19.237Z,0
2018-01-15T05:54:21.122Z,0
2018-01-15T05:55:23.007Z,0
2018-01-15T05:56:37.150Z,0
2018-01-15T05:57:39.010Z,0
2018-01-15T05:58:40.869Z,0
2018-01-15T05:59:42.754Z,0
2018-01-15T06:00:44.573Z,0
2018-01-15T06:01:46.391Z,0
2018-01-15T06:02:48.247Z,0
2018-01-15T06:03:50.105Z,0
2018-01-15T06:04:51.987Z,0
2018-01-15T06:06:06.137Z,0
2018-01-15T06:07:08.018Z,0
2018-01-15T06:08:09.896Z,0
2018-01-15T06:09:11.778Z,0
2018-01-15T06:10:13.577Z,0
2018-01-15T06:11:15.395Z,0
2018-01-15T06:12:17.273Z,0
2018-01-15T06:13:19.133Z,0
2018-01-15T06:14:21.009Z,0
2018-01-15T06:15:35.139Z,0
2018-01-15T06:16:37.022Z,0
2018-01-15T06:17:38.897Z,0
2018-01-15T06:18:40.756Z,0
2018-01-15T06:19:42.569Z,0
2018-01-15T06:20:44.369Z,0
2018-01-15T06:21:46.231Z,0
2018-01-15T06:22:48.114Z,0
2018-01-15T06:23:49.996Z,0
2018-01-15T06:25:04.148Z,0
2018-01-15T06:26:06.022Z,0
2018-01-15T06:27:07.882Z,0
2018-01-15T06:28:09.746Z,0
2018-01-15T06:29:11.565Z,0
2018-01-15T06:30:13.378Z,4
2018-01-15T06:31:15.242Z,0
2018-01-15T06:32:17.117Z,0
2018-01-15T06:33:18.974Z,4
2018-01-15T06:34:33.104Z,0
2018-01-15T06:35:34.958Z,4
2018-01-15T06:36:36.825Z,8
2018-01-15T06:37:38.678Z,4
2018-01-15T06:38:40.470Z,4
2018-01-15T06:39:42.267Z,8
2018-01-15T06:40:44.145Z,8
2018-01-15T06:41:46.004Z,8
2018-01-15T06:42:47.870Z,12
2018-01-15T06:44:02.019Z,16
2018-01-15T06:45:03.874Z,16
2018-01-15T06:46:05.733Z,20
2018-01-15T06:47:07.592Z,24
2018-01-15T06:48:09.406Z,28
2018-01-15T06:49:11.202Z,32
2018-01-15T06:50:13.074Z,40
2018-01-15T06:51:14.945Z,48
2018-01-15T06:52:16.811Z,56
2018-01-15T06:53:31.009Z,60
2018-01-15T06:54:32.887Z,80
2018-01-15T06:55:34.752Z,96
2018-01-15T06:56:36.637Z,112
2018-01-15T06:57:38.455Z,140
2018-01-15T06:58:40.257Z,160
2018-01-15T06:59:42.142Z,180
2018-01-15T07:00:44.005Z,200
2018-01-15T07:01:45.888Z,216
2018-01-15T07:03:00.015Z,240
2018-01-15T07:04:01.877Z,244
2018-01-15T07:05:03.759Z,260
2018-01-15T07:06:05.618Z,276
2018-01-15T07:07:07.418Z,284
2018-01-15T07:08:09.239Z,300
2018-01-15T07:09:11.119Z,312
2018-01-15T07:10:12.984Z,316
2018-01-15T07:11:14.866Z,308
2018-01-15T07:12:29.014Z,284
2018-01-15T07:13:30.874Z,344
2018-01-15T07:14:32.730Z,344
2018-01-15T07:15:34.596Z,332
2018-01-15T07:16:36.417Z,324
2018-01-15T07:17:38.241Z,320
2018-01-15T07:18:40.126Z,352
2018-01-15T07:19:42.012Z,368
2018-01-15T07:20:43.895Z,380
2018-01-15T07:21:58.030Z,416
2018-01-15T07:22:59.887Z,412
2018-01-15T07:24:01.770Z,424
2018-01-15T07:25:03.655Z,396
2018-01-15T07:26:05.488Z,388
2018-01-15T07:27:07.283Z,400
2018-01-15T07:28:09.169Z,420
2018-01-15T07:29:11.051Z,424
2018-01-15T07:30:12.937Z,464
2018-01-15T07:31:27.086Z,456
2018-01-15T07:32:28.965Z,452
2018-01-15T07:33:30.829Z,420
2018-01-15T07:34:32.716Z,408
2018-01-15T07:35:34.530Z,460
2018-01-15T07:36:36.327Z,464
2018-01-15T07:37:38.191Z,456
2018-01-15T07:38:40.074Z,504
2018-01-15T07:39:41.934Z,536
2018-01-15T07:40:56.063Z,548
2018-01-15T07:41:57.924Z,568
2018-01-15T07:42:59.807Z,560
2018-01-15T07:44:01.698Z,548
2018-01-15T07:45:03.517Z,588
2018-01-15T07:46:05.330Z,640
2018-01-15T07:47:07.197Z,600
2018-01-15T07:48:09.080Z,664
2018-01-15T07:49:10.942Z,716
2018-01-15T07:50:25.074Z,664
2018-01-15T07:51:26.937Z,676
2018-01-15T07:52:28.820Z,736
2018-01-15T07:53:30.700Z,696
2018-01-15T07:54:32.505Z,700
2018-01-15T07:55:34.301Z,728
2018-01-15T07:56:36.172Z,732
2018-01-15T07:57:38.051Z,768
2018-01-15T07:58:39.914Z,704
2018-01-15T07:59:54.045Z,728
2018-01-15T08:00:55.930Z,692
2018-01-15T08:01:57.796Z,712
2018-01-15T08:02:59.679Z,740
2018-01-15T08:04:01.481Z,756
2018-01-15T08:05:03.284Z,796
2018-01-15T08:06:05.172Z,808
2018-01-15T08:07:07.052Z,860
2018-01-15T08:08:08.916Z,892
2018-01-15T08:09:23.042Z,804
2018-01-15T08:10:24.904Z,808
2018-01-15T08:11:26.762Z,892
2018-01-15T08:12:28.625Z,896
2018-01-15T08:13:30.442Z,876
2018-01-15T08:14:32.244Z,972
2018-01-15T08:15:34.131Z,976
2018-01-15T08:16:36.018Z,1000
2018-01-15T08:17:37.906Z,1052
2018-01-15T08:18:52.060Z,1108
2018-01-15T08:19:53.947Z,1056
2018-01-15T08:20:55.832Z,1060
2018-01-15T08:21:57.712Z,1040
2018-01-15T08:22:59.520Z,1068
2018-01-15T08:24:01.342Z,996
2018-01-15T08:25:03.230Z,1052
2018-01-15T08:26:05.107Z,1044
2018-01-15T08:27:06.971Z,1064
2018-01-15T08:28:21.106Z,968
2018-01-15T08:29:22.990Z,976
2018-01-15T08:30:24.852Z,1012
2018-01-15T08:31:26.740Z,996
2018-01-15T08:32:28.563Z,988
2018-01-15T08:33:30.386Z,1012
2018-01-15T08:34:32.253Z,1068
2018-01-15T08:35:34.135Z,1108
2018-01-15T08:36:36.025Z,1140
2018-01-15T08:37:50.176Z,1092
2018-01-15T08:38:52.036Z,1056
2018-01-15T08:39:53.902Z,1028
2018-01-15T08:40:55.758Z,1016
2018-01-15T08:41:57.568Z,1012
2018-01-15T08:42:59.383Z,1000
2018-01-15T08:44:01.250Z,1036
2018-01-15T08:45:03.132Z,1052
2018-01-15T08:46:04.995Z,1092
2018-01-15T08:47:19.131Z,1116
2018-01-15T08:48:21.016Z,1140
2018-01-15T08:49:22.899Z,1252
2018-01-15T08:50:24.780Z,1204
2018-01-15T08:51:26.587Z,1272
2018-01-15T08:52:28.377Z,1280
2018-01-15T08:53:30.238Z,1408
2018-01-15T08:54:32.105Z,1384
2018-01-15T08:55:33.986Z,1448
2018-01-15T08:56:48.121Z,1452
2018-01-15T08:57:49.981Z,1504
2018-01-15T08:58:51.838Z,1576
2018-01-15T08:59:53.705Z,1584
2018-01-15T09:00:55.558Z,1544
2018-01-15T09:01:57.340Z,1596
2018-01-15T09:02:59.226Z,1648
2018-01-15T09:04:01.115Z,1712
2018-01-15T09:05:03.001Z,1692
2018-01-15T09:06:17.154Z,1704
2018-01-15T09:07:19.037Z,1840
2018-01-15T09:08:20.900Z,1828
2018-01-15T09:09:22.791Z,1852
2018-01-15T09:10:24.619Z,1964
2018-01-15T09:11:26.436Z,1984
2018-01-15T09:12:28.321Z,1920
2018-01-15T09:13:30.185Z,2008
2018-01-15T09:14:32.053Z,1984
2018-01-15T09:15:46.204Z,2048
2018-01-15T09:16:48.060Z,2032
2018-01-15T09:17:49.920Z,2124
2018-01-15T09:18:51.789Z,2212
2018-01-15T09:19:53.613Z,2304
2018-01-15T09:20:55.435Z,2288
2018-01-15T09:21:57.318Z,2488
2018-01-15T09:22:59.185Z,2724
2018-01-15T09:24:01.073Z,2756
2018-01-15T09:25:15.206Z,2760
2018-01-15T09:26:17.092Z,3284
2018-01-15T09:27:18.957Z,3104
2018-01-15T09:28:20.822Z,3332
2018-01-15T09:29:22.646Z,3232
2018-01-15T09:30:24.451Z,3428
2018-01-15T09:31:26.334Z,3648
2018-01-15T09:32:28.202Z,3588
2018-01-15T09:33:30.087Z,3704
2018-01-15T09:34:44.225Z,3916
2018-01-15T09:35:46.110Z,3856
2018-01-15T09:36:47.998Z,4004
2018-01-15T09:37:49.862Z,4052
2018-01-15T09:38:51.669Z,4148
2018-01-15T09:39:53.495Z,4024
2018-01-15T09:40:55.325Z,3968
2018-01-15T09:41:57.121Z,3796
2018-01-15T09:42:58.938Z,3748
2018-01-15T09:44:13.070Z,3460
2018-01-15T09:45:14.939Z,3276
2018-01-15T09:46:16.801Z,3396
2018-01-15T09:47:18.664Z,3392
2018-01-15T09:48:20.492Z,3356
2018-01-15T09:49:22.311Z,3264
2018-01-15T09:50:24.181Z,3336
2018-01-15T09:51:26.068Z,3296
2018-01-15T09:52:27.954Z,3512
2018-01-15T09:53:42.089Z,3608
2018-01-15T09:54:43.952Z,3972
2018-01-15T09:55:45.808Z,4252
2018-01-15T09:56:47.673Z,4440
2018-01-15T09:57:49.481Z,5016
2018-01-15T09:58:51.298Z,5092
2018-01-15T09:59:53.161Z,5612
2018-01-15T10:00:55.030Z,6052
2018-01-15T10:01:56.899Z,6372
2018-01-15T10:03:11.057Z,6840
2018-01-15T10:04:12.947Z,7204
2018-01-15T10:05:14.804Z,7256
2018-01-15T10:06:16.673Z,6540
2018-01-15T10:07:18.495Z,6376
2018-01-15T10:08:20.298Z,6760
2018-01-15T10:09:22.189Z,6828
2018-01-15T10:10:24.053Z,7072
2018-01-15T10:11:25.944Z,7184
2018-01-15T10:12:40.075Z,6896
2018-01-15T10:13:41.997Z,6820
2018-01-15T10:14:43.821Z,7516
2018-01-15T10:15:45.693Z,7492
2018-01-15T10:16:47.513Z,7636
2018-01-15T10:17:49.311Z,7620
2018-01-15T10:18:51.185Z,7008
2018-01-15T10:19:53.071Z,6808
2018-01-15T10:20:54.938Z,7176
2018-01-15T10:22:09.094Z,7196
2018-01-15T10:23:10.959Z,6884
2018-01-15T10:24:12.845Z,6892
2018-01-15T10:25:14.710Z,7648
2018-01-15T10:26:16.516Z,7336
2018-01-15T10:27:18.322Z,7556
2018-01-15T10:28:20.208Z,7432
2018-01-15T10:29:22.073Z,7004
2018-01-15T10:30:23.944Z,7488
2018-01-15T10:31:38.054Z,7380
2018-01-15T10:32:39.849Z,7528
2018-01-15T10:33:41.719Z,7996
2018-01-15T10:34:43.609Z,8392
2018-01-15T10:35:45.499Z,7784
2018-01-15T10:36:47.325Z,8028
2018-01-15T10:37:49.148Z,7776
2018-01-15T10:38:51.038Z,7792
2018-01-15T10:39:52.931Z,8068
2018-01-15T10:41:07.150Z,8040
2018-01-15T10:42:09.038Z,7836
2018-01-15T10:43:10.921Z,7692
2018-01-15T10:44:12.790Z,7292
2018-01-15T10:45:14.612Z,6820
2018-01-15T10:46:16.407Z,6460
2018-01-15T10:47:18.274Z,6268
2018-01-15T10:48:20.141Z,6656
2018-01-15T10:49:22.028Z,6084
2018-01-15T10:50:36.159Z,5724
2018-01-15T10:51:38.050Z,5484
2018-01-15T10:52:39.917Z,5304
2018-01-15T10:53:41.784Z,5320
2018-01-15T10:54:43.588Z,5188
2018-01-15T10:55:45.419Z,5276
2018-01-15T10:56:47.305Z,5236
2018-01-15T10:57:49.188Z,4852
2018-01-15T10:58:51.061Z,4912
2018-01-15T11:00:05.214Z,4680
2018-01-15T11:01:07.100Z,4580
2018-01-15T11:02:08.984Z,4440
2018-01-15T11:03:10.849Z,4412
2018-01-15T11:04:12.656Z,4244
2018-01-15T11:05:14.478Z,4208
2018-01-15T11:06:16.388Z,4176
2018-01-15T11:07:18.259Z,4108
2018-01-15T11:08:20.151Z,4104
2018-01-15T11:09:34.302Z,4124
2018-01-15T11:10:36.166Z,4120
2018-01-15T11:11:38.032Z,4080
2018-01-15T11:12:39.919Z,4088
2018-01-15T11:13:41.727Z,4020
2018-01-15T11:14:43.551Z,3976
2018-01-15T11:15:45.438Z,3928
2018-01-15T11:16:47.323Z,3944
2018-01-15T11:17:49.194Z,3952
2018-01-15T11:19:03.422Z,3908
2018-01-15T11:20:05.223Z,3924
2018-01-15T11:21:07.085Z,3900
2018-01-15T11:22:08.955Z,3964
2018-01-15T11:23:10.761Z,3992
2018-01-15T11:24:12.583Z,4200
2018-01-15T11:25:14.471Z,4136
2018-01-15T11:26:16.366Z,4036
2018-01-15T11:27:18.223Z,4288
2018-01-15T11:28:32.378Z,4164
2018-01-15T11:29:34.265Z,4096
2018-01-15T11:30:36.151Z,4224
2018-01-15T11:31:38.016Z,4140
2018-01-15T11:32:39.819Z,4316
2018-01-15T11:33:41.618Z,4052
2018-01-15T11:34:43.505Z,4072
2018-01-15T11:35:45.399Z,4316
2018-01-15T11:36:47.312Z,4296
2018-01-15T11:38:01.456Z,4196
2018-01-15T11:39:03.340Z,4104
2018-01-15T11:40:05.220Z,4260
2018-01-15T11:41:07.084Z,4276
2018-01-15T11:42:08.912Z,4312
2018-01-15T11:43:10.706Z,4524
2018-01-15T11:44:12.576Z,4764
2018-01-15T11:45:14.490Z,4768
2018-01-15T11:46:16.404Z,4780
2018-01-15T11:47:30.559Z,4696
2018-01-15T11:48:32.444Z,4952
2018-01-15T11:49:34.306Z,5008
2018-01-15T11:50:36.169Z,5360
2018-01-15T11:51:37.971Z,5244
2018-01-15T11:52:39.772Z,5416
2018-01-15T11:53:41.639Z,5096
2018-01-15T11:54:43.524Z,5704
2018-01-15T11:55:45.411Z,5656
2018-01-15T11:56:59.564Z,4332
2018-01-15T11:58:01.446Z,4420
2018-01-15T11:59:03.311Z,4112
2018-01-15T12:00:05.197Z,4028
2018-01-15T12:01:07.023Z,4228
2018-01-15T12:02:08.823Z,4164
2018-01-15T12:03:10.689Z,3956
2018-01-15T12:04:12.558Z,3880
2018-01-15T12:05:14.445Z,4100
2018-01-15T12:06:28.598Z,4064
2018-01-15T12:07:30.489Z,3992
2018-01-15T12:08:32.372Z,3936
2018-01-15T12:09:34.235Z,3904
2018-01-15T12:10:36.060Z,3984
2018-01-15T12:11:37.879Z,4112
2018-01-15T12:12:39.742Z,3824
2018-01-15T12:13:41.611Z,3960
2018-01-15T12:14:43.498Z,4392
2018-01-15T12:15:57.653Z,4432
2018-01-15T12:16:59.598Z,4408
2018-01-15T12:18:01.522Z,3948
2018-01-15T12:19:03.410Z,4208
2018-01-15T12:20:05.231Z,4072
2018-01-15T12:21:07.029Z,4156
2018-01-15T12:22:08.895Z,3900
2018-01-15T12:23:10.757Z,3984
2018-01-15T12:24:12.628Z,4040
2018-01-15T12:25:26.776Z,4296
2018-01-15T12:26:28.640Z,4340
2018-01-15T12:27:30.505Z,4280
2018-01-15T12:28:32.390Z,4148
2018-01-15T12:29:34.196Z,4128
2018-01-15T12:30:36.016Z,3916
2018-01-15T12:31:37.876Z,3972
2018-01-15T12:32:39.742Z,4216
2018-01-15T12:33:41.630Z,4192
2018-01-15T12:34:55.785Z,4156
2018-01-15T12:35:57.645Z,4004
2018-01-15T12:36:59.508Z,4528
2018-01-15T12:38:01.399Z,4592
2018-01-15T12:39:03.222Z,4620
2018-01-15T12:40:05.086Z,4708
2018-01-15T12:41:06.906Z,5000
2018-01-15T12:42:08.773Z,4348
2018-01-15T12:43:10.659Z,4552
2018-01-15T12:44:24.792Z,4756
2018-01-15T12:45:26.655Z,4672
2018-01-15T12:46:28.522Z,4728
2018-01-15T12:47:30.410Z,4584
2018-01-15T12:48:32.233Z,4652
2018-01-15T12:49:34.037Z,4328
2018-01-15T12:50:35.924Z,4504
2018-01-15T12:51:37.787Z,4868
2018-01-15T12:52:39.674Z,4468
2018-01-15T12:53:53.807Z,4608
2018-01-15T12:54:55.672Z,4712
2018-01-15T12:55:57.530Z,5268
2018-01-15T12:56:59.399Z,4492
2018-01-15T12:58:01.229Z,4504
2018-01-15T12:59:03.048Z,4880
2018-01-15T13:00:04.914Z,5096
2018-01-15T13:01:06.798Z,4660
2018-01-15T13:02:08.659Z,4760
2018-01-15T13:03:22.838Z,5076
2018-01-15T13:04:24.709Z,4156
2018-01-15T13:05:26.569Z,4368
2018-01-15T13:06:28.442Z,4380
2018-01-15T13:07:30.265Z,4536
2018-01-15T13:08:32.058Z,4300
2018-01-15T13:09:33.931Z,4188
2018-01-15T13:10:35.814Z,4528
2018-01-15T13:11:37.685Z,3636
2018-01-15T13:12:51.838Z,4336
2018-01-15T13:13:53.702Z,4236
2018-01-15T13:14:55.562Z,4104
2018-01-15T13:15:57.434Z,4264
2018-01-15T13:16:59.261Z,4272
2018-01-15T13:18:01.079Z,4004
2018-01-15T13:19:02.946Z,3640
2018-01-15T13:20:04.812Z,3720
2018-01-15T13:21:06.694Z,3992
2018-01-15T13:22:20.829Z,3952
2018-01-15T13:23:22.715Z,3540
2018-01-15T13:24:24.582Z,3284
2018-01-15T13:25:26.475Z,3200
2018-01-15T13:26:28.303Z,3116
2018-01-15T13:27:30.119Z,3192
2018-01-15T13:28:31.985Z,3048
2018-01-15T13:29:33.870Z,3292
2018-01-15T13:30:35.734Z,3116
2018-01-15T13:31:49.893Z,3748
2018-01-15T13:32:51.777Z,3708
2018-01-15T13:33:53.665Z,3684
2018-01-15T13:34:55.546Z,3740
2018-01-15T13:35:57.353Z,3208
2018-01-15T13:36:59.177Z,3340
2018-01-15T13:38:01.039Z,3848
2018-01-15T13:39:02.903Z,3800
2018-01-15T13:40:04.794Z,3676
2018-01-15T13:41:18.923Z,3424
2018-01-15T13:42:20.782Z,3564
2018-01-15T13:43:22.647Z,3384
2018-01-15T13:44:24.511Z,3460
2018-01-15T13:45:26.312Z,3360
2018-01-15T13:46:28.116Z,3284
2018-01-15T13:47:30.007Z,3316
2018-01-15T13:48:31.873Z,3204
2018-01-15T13:49:33.762Z,3212
2018-01-15T13:50:47.939Z,3164
2018-01-15T13:51:49.810Z,3172
2018-01-15T13:52:51.700Z,3232
2018-01-15T13:53:53.585Z,3236
2018-01-15T13:54:55.390Z,3052
2018-01-15T13:55:57.212Z,3268
2018-01-15T13:56:59.080Z,3160
2018-01-15T13:58:00.970Z,3144
2018-01-15T13:59:02.857Z,3532
2018-01-15T14:00:17.040Z,3540
2018-01-15T14:01:18.927Z,3368
2018-01-15T14:02:20.810Z,3260
2018-01-15T14:03:22.683Z,3024
2018-01-15T14:04:24.480Z,3160
2018-01-15T14:05:26.281Z,3284
2018-01-15T14:06:28.175Z,3052
2018-01-15T14:07:30.009Z,2936
2018-01-15T14:08:31.900Z,3208
2018-01-15T14:09:46.053Z,2720
2018-01-15T14:10:47.939Z,2936
2018-01-15T14:11:49.823Z,3056
2018-01-15T14:12:51.689Z,3060
2018-01-15T14:13:53.490Z,2768
2018-01-15T14:14:55.292Z,3136
2018-01-15T14:15:57.156Z,2708
2018-01-15T14:16:59.024Z,2644
2018-01-15T14:18:00.889Z,2540
2018-01-15T14:19:15.037Z,2636
2018-01-15T14:20:16.906Z,2636
2018-01-15T14:21:18.795Z,2444
2018-01-15T14:22:20.629Z,2340
2018-01-15T14:23:22.436Z,2548
2018-01-15T14:24:24.255Z,2380
2018-01-15T14:25:26.139Z,2168
2018-01-15T14:26:27.999Z,2532
2018-01-15T14:27:29.857Z,2308
2018-01-15T14:28:43.992Z,2160
2018-01-15T14:29:45.849Z,2084
2018-01-15T14:30:47.711Z,2104
2018-01-15T14:31:49.574Z,2188
2018-01-15T14:32:51.433Z,2108
2018-01-15T14:33:53.250Z,1980
2018-01-15T14:34:55.144Z,1956
2018-01-15T14:35:56.996Z,1900
2018-01-15T14:36:58.879Z,1948
2018-01-15T14:38:13.031Z,1800
2018-01-15T14:39:14.892Z,1820
2018-01-15T14:40:16.873Z,1728
2018-01-15T14:41:18.609Z,1624
2018-01-15T14:42:20.415Z,1556
2018-01-15T14:43:22.237Z,1608
2018-01-15T14:44:24.125Z,1476
2018-01-15T14:45:25.981Z,1432